Terminal Aerodrome Forecast
Issued by NWS Charleston, WV

Home | Current Version | Previous Version | Text Only | Print | Product List | Glossary On
Versions: 1 2 3 4 5 6 7 8 9 10 11 12 13 14 15 16 17 18 19 20 21
435
FTUS41 KRLX 211732
TAFBKW
TAF
KBKW 211732Z 2118/2218 28008KT P6SM TSRA BKN070CB
     FM211900 28007KT P6SM -SHRA VCTS SCT090CB
     FM212100 28004KT P6SM -SHRA SCT200
     FM220400 VRB03KT P6SM SCT200
     FM220600 00000KT 3SM BR SCT200
     FM221200 VRB03KT P6SM BKN200
     FM221400 23004KT P6SM BKN150=

USA.gov is the U.S. government's official web portal to all federal, state and local government web resources and services.